sensor_id;sensor_type;location;lat;lon;timestamp;P1;durP1;ratioP1;P2;durP2;ratioP2
789;SDS011;378;48.844;9.156;2022-08-19T00:01:14;17.63;;;11.93;;
789;SDS011;378;48.844;9.156;2022-08-19T00:03:41;18.92;;;11.38;;
789;SDS011;378;48.844;9.156;2022-08-19T00:06:09;20.48;;;12.25;;
789;SDS011;378;48.844;9.156;2022-08-19T00:08:36;19.95;;;12.43;;
789;SDS011;378;48.844;9.156;2022-08-19T00:11:03;18.35;;;12.40;;
789;SDS011;378;48.844;9.156;2022-08-19T00:13:31;22.45;;;13.00;;
789;SDS011;378;48.844;9.156;2022-08-19T00:15:58;18.90;;;11.85;;
789;SDS011;378;48.844;9.156;2022-08-19T00:18:26;22.40;;;12.05;;
789;SDS011;378;48.844;9.156;2022-08-19T00:20:53;17.20;;;11.60;;
789;SDS011;378;48.844;9.156;2022-08-19T00:23:21;18.20;;;11.95;;
789;SDS011;378;48.844;9.156;2022-08-19T00:25:48;20.17;;;11.93;;
789;SDS011;378;48.844;9.156;2022-08-19T00:28:15;19.23;;;11.80;;
789;SDS011;378;48.844;9.156;2022-08-19T00:30:42;18.05;;;11.55;;
789;SDS011;378;48.844;9.156;2022-08-19T00:33:09;22.45;;;12.13;;
789;SDS011;378;48.844;9.156;2022-08-19T00:35:36;22.00;;;12.48;;
789;SDS011;378;48.844;9.156;2022-08-19T00:38:03;21.55;;;12.40;;
789;SDS011;378;48.844;9.156;2022-08-19T00:40:33;22.08;;;12.38;;
789;SDS011;378;48.844;9.156;2022-08-19T00:43:00;20.45;;;11.90;;
789;SDS011;378;48.844;9.156;2022-08-19T00:45:28;20.15;;;11.93;;
789;SDS011;378;48.844;9.156;2022-08-19T00:47:57;20.42;;;12.70;;
789;SDS011;378;48.844;9.156;2022-08-19T00:50:28;19.27;;;11.95;;
789;SDS011;378;48.844;9.156;2022-08-19T00:52:56;19.85;;;11.40;;
789;SDS011;378;48.844;9.156;2022-08-19T00:55:25;18.98;;;12.07;;
789;SDS011;378;48.844;9.156;2022-08-19T00:57:56;18.83;;;12.02;;
789;SDS011;378;48.844;9.156;2022-08-19T01:00:26;22.38;;;13.00;;
789;SDS011;378;48.844;9.156;2022-08-19T01:02:55;22.88;;;13.32;;
789;SDS011;378;48.844;9.156;2022-08-19T01:05:23;21.55;;;12.18;;
789;SDS011;378;48.844;9.156;2022-08-19T01:07:53;21.92;;;12.30;;
789;SDS011;378;48.844;9.156;2022-08-19T01:10:23;20.83;;;12.98;;
789;SDS011;378;48.844;9.156;2022-08-19T01:12:51;21.83;;;12.80;;
789;SDS011;378;48.844;9.156;2022-08-19T01:15:22;23.80;;;13.20;;
789;SDS011;378;48.844;9.156;2022-08-19T01:17:51;22.00;;;12.35;;
789;SDS011;378;48.844;9.156;2022-08-19T01:20:21;23.65;;;13.05;;
789;SDS011;378;48.844;9.156;2022-08-19T01:22:52;18.73;;;12.32;;
789;SDS011;378;48.844;9.156;2022-08-19T01:25:21;23.98;;;13.02;;
789;SDS011;378;48.844;9.156;2022-08-19T01:27:52;21.50;;;13.75;;
789;SDS011;378;48.844;9.156;2022-08-19T01:30:20;20.02;;;12.95;;
789;SDS011;378;48.844;9.156;2022-08-19T01:32:50;22.88;;;13.57;;
789;SDS011;378;48.844;9.156;2022-08-19T01:35:17;20.77;;;13.38;;
789;SDS011;378;48.844;9.156;2022-08-19T01:37:47;20.02;;;12.77;;
789;SDS011;378;48.844;9.156;2022-08-19T01:40:19;20.80;;;13.38;;
789;SDS011;378;48.844;9.156;2022-08-19T01:42:47;21.73;;;13.73;;
789;SDS011;378;48.844;9.156;2022-08-19T01:45:14;21.15;;;13.50;;
789;SDS011;378;48.844;9.156;2022-08-19T01:47:41;22.00;;;14.18;;
789;SDS011;378;48.844;9.156;2022-08-19T01:50:09;23.42;;;14.02;;
789;SDS011;378;48.844;9.156;2022-08-19T01:52:38;23.52;;;14.90;;
789;SDS011;378;48.844;9.156;2022-08-19T01:55:07;26.08;;;15.15;;
789;SDS011;378;48.844;9.156;2022-08-19T01:57:37;22.88;;;14.05;;
789;SDS011;378;48.844;9.156;2022-08-19T02:00:08;26.10;;;14.65;;
789;SDS011;378;48.844;9.156;2022-08-19T02:02:37;22.90;;;14.40;;
789;SDS011;378;48.844;9.156;2022-08-19T02:05:05;23.75;;;15.15;;
789;SDS011;378;48.844;9.156;2022-08-19T02:07:33;23.40;;;14.80;;
789;SDS011;378;48.844;9.156;2022-08-19T02:10:01;24.35;;;15.35;;
789;SDS011;378;48.844;9.156;2022-08-19T02:12:29;26.50;;;15.65;;
789;SDS011;378;48.844;9.156;2022-08-19T02:14:57;26.58;;;15.52;;
789;SDS011;378;48.844;9.156;2022-08-19T02:17:26;24.10;;;14.90;;
789;SDS011;378;48.844;9.156;2022-08-19T02:19:54;25.98;;;16.33;;
789;SDS011;378;48.844;9.156;2022-08-19T02:22:21;29.20;;;15.98;;
789;SDS011;378;48.844;9.156;2022-08-19T02:24:50;29.45;;;15.85;;
789;SDS011;378;48.844;9.156;2022-08-19T02:27:17;28.67;;;16.75;;
789;SDS011;378;48.844;9.156;2022-08-19T02:29:45;31.67;;;16.73;;
789;SDS011;378;48.844;9.156;2022-08-19T02:32:15;28.25;;;16.35;;
789;SDS011;378;48.844;9.156;2022-08-19T02:34:49;30.65;;;17.13;;
789;SDS011;378;48.844;9.156;2022-08-19T02:37:29;28.73;;;16.42;;
789;SDS011;378;48.844;9.156;2022-08-19T02:40:13;27.80;;;16.42;;
789;SDS011;378;48.844;9.156;2022-08-19T02:42:44;28.60;;;17.05;;
789;SDS011;378;48.844;9.156;2022-08-19T02:45:21;29.45;;;17.42;;
789;SDS011;378;48.844;9.156;2022-08-19T02:47:49;28.95;;;17.13;;
789;SDS011;378;48.844;9.156;2022-08-19T02:50:16;31.73;;;18.75;;
789;SDS011;378;48.844;9.156;2022-08-19T02:52:43;30.10;;;17.55;;
789;SDS011;378;48.844;9.156;2022-08-19T02:55:11;28.90;;;17.67;;
789;SDS011;378;48.844;9.156;2022-08-19T02:57:38;28.70;;;17.02;;
789;SDS011;378;48.844;9.156;2022-08-19T03:00:06;29.83;;;17.95;;
789;SDS011;378;48.844;9.156;2022-08-19T03:02:36;29.23;;;17.42;;
789;SDS011;378;48.844;9.156;2022-08-19T03:05:05;34.55;;;19.55;;
789;SDS011;378;48.844;9.156;2022-08-19T03:07:33;35.92;;;19.17;;
789;SDS011;378;48.844;9.156;2022-08-19T03:10:00;31.48;;;18.65;;
789;SDS011;378;48.844;9.156;2022-08-19T03:12:27;31.73;;;18.58;;
789;SDS011;378;48.844;9.156;2022-08-19T03:14:53;32.60;;;19.25;;
789;SDS011;378;48.844;9.156;2022-08-19T03:17:20;38.50;;;19.73;;
789;SDS011;378;48.844;9.156;2022-08-19T03:19:48;32.45;;;18.98;;
789;SDS011;378;48.844;9.156;2022-08-19T03:22:16;33.17;;;18.88;;
789;SDS011;378;48.844;9.156;2022-08-19T03:24:43;32.75;;;19.52;;
789;SDS011;378;48.844;9.156;2022-08-19T03:27:10;32.38;;;19.45;;
789;SDS011;378;48.844;9.156;2022-08-19T03:29:39;34.72;;;19.73;;
789;SDS011;378;48.844;9.156;2022-08-19T03:32:06;32.47;;;19.38;;
789;SDS011;378;48.844;9.156;2022-08-19T03:34:34;31.40;;;18.83;;
789;SDS011;378;48.844;9.156;2022-08-19T03:37:03;33.50;;;20.15;;
789;SDS011;378;48.844;9.156;2022-08-19T03:39:35;41.78;;;20.63;;
789;SDS011;378;48.844;9.156;2022-08-19T03:42:02;30.80;;;18.80;;
789;SDS011;378;48.844;9.156;2022-08-19T03:44:30;32.88;;;20.48;;
789;SDS011;378;48.844;9.156;2022-08-19T03:46:58;35.63;;;20.85;;
789;SDS011;378;48.844;9.156;2022-08-19T03:49:27;31.92;;;20.38;;
789;SDS011;378;48.844;9.156;2022-08-19T03:51:55;34.00;;;19.85;;
789;SDS011;378;48.844;9.156;2022-08-19T03:54:26;33.38;;;20.65;;
789;SDS011;378;48.844;9.156;2022-08-19T03:56:56;34.20;;;21.15;;
789;SDS011;378;48.844;9.156;2022-08-19T03:59:24;37.33;;;21.15;;
789;SDS011;378;48.844;9.156;2022-08-19T04:01:53;37.83;;;20.75;;
789;SDS011;378;48.844;9.156;2022-08-19T04:04:20;34.88;;;21.13;;
789;SDS011;378;48.844;9.156;2022-08-19T04:06:48;34.60;;;20.77;;
789;SDS011;378;48.844;9.156;2022-08-19T04:09:15;35.55;;;21.08;;
789;SDS011;378;48.844;9.156;2022-08-19T04:11:43;37.83;;;21.65;;
789;SDS011;378;48.844;9.156;2022-08-19T04:14:14;38.42;;;21.45;;
789;SDS011;378;48.844;9.156;2022-08-19T04:16:43;38.35;;;21.88;;
789;SDS011;378;48.844;9.156;2022-08-19T04:19:11;35.17;;;21.60;;
789;SDS011;378;48.844;9.156;2022-08-19T04:21:39;35.22;;;22.48;;
789;SDS011;378;48.844;9.156;2022-08-19T04:24:09;33.65;;;21.40;;
789;SDS011;378;48.844;9.156;2022-08-19T04:26:37;33.45;;;20.85;;
789;SDS011;378;48.844;9.156;2022-08-19T04:29:05;35.42;;;20.95;;
789;SDS011;378;48.844;9.156;2022-08-19T04:31:34;40.30;;;23.00;;
789;SDS011;378;48.844;9.156;2022-08-19T04:34:02;36.15;;;21.88;;
789;SDS011;378;48.844;9.156;2022-08-19T04:36:33;37.90;;;22.15;;
789;SDS011;378;48.844;9.156;2022-08-19T04:39:04;37.22;;;22.45;;
789;SDS011;378;48.844;9.156;2022-08-19T04:41:32;35.90;;;21.65;;
789;SDS011;378;48.844;9.156;2022-08-19T04:44:17;37.50;;;21.48;;
789;SDS011;378;48.844;9.156;2022-08-19T04:46:46;32.05;;;19.85;;
789;SDS011;378;48.844;9.156;2022-08-19T04:49:15;33.20;;;21.27;;
789;SDS011;378;48.844;9.156;2022-08-19T04:51:45;35.38;;;21.67;;
789;SDS011;378;48.844;9.156;2022-08-19T04:54:14;35.38;;;20.95;;
789;SDS011;378;48.844;9.156;2022-08-19T04:56:41;37.22;;;21.63;;
789;SDS011;378;48.844;9.156;2022-08-19T04:59:09;34.20;;;21.83;;
789;SDS011;378;48.844;9.156;2022-08-19T05:01:39;37.67;;;21.27;;
789;SDS011;378;48.844;9.156;2022-08-19T05:04:10;32.97;;;20.88;;
789;SDS011;378;48.844;9.156;2022-08-19T05:06:38;38.53;;;21.33;;
789;SDS011;378;48.844;9.156;2022-08-19T05:09:06;40.55;;;21.05;;
789;SDS011;378;48.844;9.156;2022-08-19T05:11:34;34.30;;;20.98;;
789;SDS011;378;48.844;9.156;2022-08-19T05:14:04;35.03;;;21.52;;
789;SDS011;378;48.844;9.156;2022-08-19T05:16:31;36.65;;;22.38;;
789;SDS011;378;48.844;9.156;2022-08-19T05:18:59;33.88;;;22.08;;
789;SDS011;378;48.844;9.156;2022-08-19T05:21:45;34.58;;;22.13;;
789;SDS011;378;48.844;9.156;2022-08-19T05:24:30;30.42;;;20.48;;
789;SDS011;378;48.844;9.156;2022-08-19T05:26:59;39.60;;;23.05;;
789;SDS011;378;48.844;9.156;2022-08-19T05:29:28;32.60;;;20.85;;
789;SDS011;378;48.844;9.156;2022-08-19T05:31:57;35.28;;;21.90;;
789;SDS011;378;48.844;9.156;2022-08-19T05:34:25;35.47;;;22.08;;
789;SDS011;378;48.844;9.156;2022-08-19T05:36:55;36.85;;;21.33;;
789;SDS011;378;48.844;9.156;2022-08-19T05:39:25;36.88;;;22.30;;
789;SDS011;378;48.844;9.156;2022-08-19T05:41:54;35.85;;;22.10;;
789;SDS011;378;48.844;9.156;2022-08-19T05:44:26;37.10;;;21.05;;
789;SDS011;378;48.844;9.156;2022-08-19T05:46:55;33.58;;;21.48;;
789;SDS011;378;48.844;9.156;2022-08-19T05:49:22;34.13;;;21.60;;
789;SDS011;378;48.844;9.156;2022-08-19T05:51:50;37.05;;;21.38;;
789;SDS011;378;48.844;9.156;2022-08-19T05:54:19;33.72;;;20.77;;
789;SDS011;378;48.844;9.156;2022-08-19T05:56:48;39.42;;;22.33;;
789;SDS011;378;48.844;9.156;2022-08-19T05:59:16;33.10;;;20.45;;
789;SDS011;378;48.844;9.156;2022-08-19T06:01:44;33.30;;;20.65;;
789;SDS011;378;48.844;9.156;2022-08-19T06:04:15;34.38;;;21.35;;
789;SDS011;378;48.844;9.156;2022-08-19T06:06:44;37.05;;;21.45;;
789;SDS011;378;48.844;9.156;2022-08-19T06:09:11;32.95;;;20.33;;
789;SDS011;378;48.844;9.156;2022-08-19T06:11:40;29.30;;;20.05;;
789;SDS011;378;48.844;9.156;2022-08-19T06:14:12;34.10;;;21.88;;
789;SDS011;378;48.844;9.156;2022-08-19T06:16:42;35.38;;;20.42;;
789;SDS011;378;48.844;9.156;2022-08-19T06:19:10;35.70;;;21.13;;
789;SDS011;378;48.844;9.156;2022-08-19T06:21:39;32.63;;;19.88;;
789;SDS011;378;48.844;9.156;2022-08-19T06:24:13;34.03;;;21.98;;
789;SDS011;378;48.844;9.156;2022-08-19T06:26:47;37.60;;;21.02;;
789;SDS011;378;48.844;9.156;2022-08-19T06:29:16;35.13;;;21.17;;
789;SDS011;378;48.844;9.156;2022-08-19T06:31:44;34.53;;;20.95;;
789;SDS011;378;48.844;9.156;2022-08-19T06:34:14;40.67;;;21.30;;
789;SDS011;378;48.844;9.156;2022-08-19T06:36:44;30.85;;;19.77;;
789;SDS011;378;48.844;9.156;2022-08-19T06:39:14;32.03;;;20.58;;
789;SDS011;378;48.844;9.156;2022-08-19T06:41:45;30.33;;;19.42;;
789;SDS011;378;48.844;9.156;2022-08-19T06:44:20;37.03;;;19.98;;
789;SDS011;378;48.844;9.156;2022-08-19T06:46:48;34.55;;;20.05;;
789;SDS011;378;48.844;9.156;2022-08-19T06:49:18;36.95;;;20.75;;
789;SDS011;378;48.844;9.156;2022-08-19T06:51:45;31.98;;;20.48;;
789;SDS011;378;48.844;9.156;2022-08-19T06:54:13;36.50;;;22.48;;
789;SDS011;378;48.844;9.156;2022-08-19T06:56:41;39.85;;;22.38;;
789;SDS011;378;48.844;9.156;2022-08-19T06:59:11;37.40;;;22.33;;
789;SDS011;378;48.844;9.156;2022-08-19T07:01:40;36.55;;;21.60;;
789;SDS011;378;48.844;9.156;2022-08-19T07:04:10;37.17;;;22.65;;
789;SDS011;378;48.844;9.156;2022-08-19T07:06:38;35.58;;;21.83;;
789;SDS011;378;48.844;9.156;2022-08-19T07:09:05;38.67;;;21.67;;
789;SDS011;378;48.844;9.156;2022-08-19T07:11:33;38.70;;;21.70;;
789;SDS011;378;48.844;9.156;2022-08-19T07:14:10;41.85;;;21.17;;
789;SDS011;378;48.844;9.156;2022-08-19T07:16:39;34.00;;;20.83;;
789;SDS011;378;48.844;9.156;2022-08-19T07:19:06;34.28;;;20.98;;
789;SDS011;378;48.844;9.156;2022-08-19T07:21:33;33.45;;;20.25;;
789;SDS011;378;48.844;9.156;2022-08-19T07:24:02;36.28;;;20.23;;
789;SDS011;378;48.844;9.156;2022-08-19T07:26:31;33.67;;;19.38;;
789;SDS011;378;48.844;9.156;2022-08-19T07:29:03;31.85;;;18.92;;
789;SDS011;378;48.844;9.156;2022-08-19T07:31:32;31.27;;;18.95;;
789;SDS011;378;48.844;9.156;2022-08-19T07:34:02;30.33;;;19.10;;
789;SDS011;378;48.844;9.156;2022-08-19T07:36:32;32.13;;;19.27;;
789;SDS011;378;48.844;9.156;2022-08-19T07:39:03;30.77;;;19.63;;
789;SDS011;378;48.844;9.156;2022-08-19T07:41:33;35.05;;;20.42;;
789;SDS011;378;48.844;9.156;2022-08-19T07:44:03;31.70;;;18.75;;
789;SDS011;378;48.844;9.156;2022-08-19T07:46:34;28.67;;;18.08;;
789;SDS011;378;48.844;9.156;2022-08-19T07:49:03;33.33;;;18.95;;
789;SDS011;378;48.844;9.156;2022-08-19T07:51:30;25.83;;;18.20;;
789;SDS011;378;48.844;9.156;2022-08-19T07:53:57;32.97;;;18.00;;
789;SDS011;378;48.844;9.156;2022-08-19T07:56:25;28.42;;;18.83;;
789;SDS011;378;48.844;9.156;2022-08-19T07:58:52;28.52;;;18.50;;
789;SDS011;378;48.844;9.156;2022-08-19T08:01:20;29.40;;;18.17;;
789;SDS011;378;48.844;9.156;2022-08-19T08:03:52;32.35;;;18.23;;
789;SDS011;378;48.844;9.156;2022-08-19T08:06:38;25.50;;;17.17;;
789;SDS011;378;48.844;9.156;2022-08-19T08:09:23;30.30;;;18.17;;
789;SDS011;378;48.844;9.156;2022-08-19T08:11:53;27.90;;;16.35;;
789;SDS011;378;48.844;9.156;2022-08-19T08:15:03;28.55;;;17.27;;
789;SDS011;378;48.844;9.156;2022-08-19T08:17:20;34.40;;;18.58;;
789;SDS011;378;48.844;9.156;2022-08-19T08:19:50;33.58;;;17.80;;
789;SDS011;378;48.844;9.156;2022-08-19T08:22:18;23.48;;;15.25;;
789;SDS011;378;48.844;9.156;2022-08-19T08:25:04;28.95;;;16.73;;
789;SDS011;378;48.844;9.156;2022-08-19T08:27:34;27.20;;;16.85;;
789;SDS011;378;48.844;9.156;2022-08-19T08:30:04;27.73;;;16.30;;
789;SDS011;378;48.844;9.156;2022-08-19T08:32:37;26.40;;;16.52;;
789;SDS011;378;48.844;9.156;2022-08-19T08:35:08;30.67;;;17.65;;
789;SDS011;378;48.844;9.156;2022-08-19T08:37:37;26.55;;;17.40;;
789;SDS011;378;48.844;9.156;2022-08-19T08:40:04;29.98;;;17.70;;
789;SDS011;378;48.844;9.156;2022-08-19T08:42:36;32.67;;;18.88;;
789;SDS011;378;48.844;9.156;2022-08-19T08:45:12;28.73;;;17.88;;
789;SDS011;378;48.844;9.156;2022-08-19T08:47:41;29.77;;;18.02;;
789;SDS011;378;48.844;9.156;2022-08-19T08:50:16;29.80;;;18.40;;
789;SDS011;378;48.844;9.156;2022-08-19T08:52:48;30.73;;;20.97;;
789;SDS011;378;48.844;9.156;2022-08-19T08:55:19;28.27;;;19.15;;
789;SDS011;378;48.844;9.156;2022-08-19T08:57:53;26.63;;;17.98;;
789;SDS011;378;48.844;9.156;2022-08-19T09:00:28;37.42;;;20.25;;
789;SDS011;378;48.844;9.156;2022-08-19T09:02:59;29.60;;;18.60;;
789;SDS011;378;48.844;9.156;2022-08-19T09:05:32;32.35;;;17.83;;
789;SDS011;378;48.844;9.156;2022-08-19T09:08:08;27.23;;;17.40;;
789;SDS011;378;48.844;9.156;2022-08-19T09:10:44;28.08;;;17.00;;
789;SDS011;378;48.844;9.156;2022-08-19T09:13:16;27.20;;;16.42;;
789;SDS011;378;48.844;9.156;2022-08-19T09:15:52;25.45;;;16.50;;
789;SDS011;378;48.844;9.156;2022-08-19T09:18:22;29.83;;;16.60;;
789;SDS011;378;48.844;9.156;2022-08-19T09:20:51;26.27;;;17.13;;
789;SDS011;378;48.844;9.156;2022-08-19T09:23:18;27.60;;;16.05;;
789;SDS011;378;48.844;9.156;2022-08-19T09:25:49;24.58;;;15.23;;
789;SDS011;378;48.844;9.156;2022-08-19T09:28:16;28.40;;;16.35;;
789;SDS011;378;48.844;9.156;2022-08-19T09:30:43;21.60;;;14.60;;
789;SDS011;378;48.844;9.156;2022-08-19T09:33:10;24.50;;;14.23;;
789;SDS011;378;48.844;9.156;2022-08-19T09:35:41;22.02;;;14.25;;
789;SDS011;378;48.844;9.156;2022-08-19T09:38:10;22.23;;;14.27;;
789;SDS011;378;48.844;9.156;2022-08-19T09:40:37;23.42;;;13.40;;
789;SDS011;378;48.844;9.156;2022-08-19T09:43:04;18.45;;;12.40;;
789;SDS011;378;48.844;9.156;2022-08-19T09:45:32;18.60;;;12.80;;
789;SDS011;378;48.844;9.156;2022-08-19T09:47:59;20.65;;;12.50;;
789;SDS011;378;48.844;9.156;2022-08-19T09:50:27;16.38;;;11.82;;
789;SDS011;378;48.844;9.156;2022-08-19T09:52:57;18.45;;;11.45;;
789;SDS011;378;48.844;9.156;2022-08-19T09:55:25;16.05;;;11.40;;
789;SDS011;378;48.844;9.156;2022-08-19T09:57:53;20.10;;;11.60;;
789;SDS011;378;48.844;9.156;2022-08-19T10:00:20;18.92;;;12.05;;
789;SDS011;378;48.844;9.156;2022-08-19T10:02:47;21.00;;;11.48;;
789;SDS011;378;48.844;9.156;2022-08-19T10:05:14;21.63;;;11.65;;
789;SDS011;378;48.844;9.156;2022-08-19T10:07:58;19.98;;;11.30;;
789;SDS011;378;48.844;9.156;2022-08-19T10:10:27;22.02;;;12.10;;
789;SDS011;378;48.844;9.156;2022-08-19T10:12:54;19.67;;;11.52;;
789;SDS011;378;48.844;9.156;2022-08-19T10:15:21;17.73;;;11.27;;
789;SDS011;378;48.844;9.156;2022-08-19T10:17:48;17.23;;;10.88;;
789;SDS011;378;48.844;9.156;2022-08-19T10:20:15;18.70;;;10.45;;
789;SDS011;378;48.844;9.156;2022-08-19T10:22:42;17.75;;;11.07;;
789;SDS011;378;48.844;9.156;2022-08-19T10:25:10;16.58;;;10.88;;
789;SDS011;378;48.844;9.156;2022-08-19T10:27:39;18.92;;;11.15;;
789;SDS011;378;48.844;9.156;2022-08-19T10:30:06;16.73;;;10.75;;
789;SDS011;378;48.844;9.156;2022-08-19T10:32:34;16.38;;;10.15;;
789;SDS011;378;48.844;9.156;2022-08-19T10:35:02;14.60;;;10.02;;
789;SDS011;378;48.844;9.156;2022-08-19T10:37:33;17.83;;;9.98;;
789;SDS011;378;48.844;9.156;2022-08-19T10:40:02;15.18;;;9.82;;
789;SDS011;378;48.844;9.156;2022-08-19T10:42:30;15.95;;;9.27;;
789;SDS011;378;48.844;9.156;2022-08-19T10:44:59;14.60;;;9.32;;
789;SDS011;378;48.844;9.156;2022-08-19T10:47:28;13.98;;;8.82;;
789;SDS011;378;48.844;9.156;2022-08-19T10:49:55;14.18;;;8.35;;
789;SDS011;378;48.844;9.156;2022-08-19T10:52:39;12.40;;;7.47;;
789;SDS011;378;48.844;9.156;2022-08-19T10:55:07;12.05;;;7.80;;
789;SDS011;378;48.844;9.156;2022-08-19T10:57:52;12.63;;;8.30;;
789;SDS011;378;48.844;9.156;2022-08-19T11:00:21;13.85;;;7.70;;
789;SDS011;378;48.844;9.156;2022-08-19T11:02:48;14.23;;;8.70;;
789;SDS011;378;48.844;9.156;2022-08-19T11:05:15;12.90;;;7.50;;
789;SDS011;378;48.844;9.156;2022-08-19T11:07:43;11.98;;;7.53;;
789;SDS011;378;48.844;9.156;2022-08-19T11:10:11;13.38;;;8.38;;
789;SDS011;378;48.844;9.156;2022-08-19T11:12:39;11.98;;;7.60;;
789;SDS011;378;48.844;9.156;2022-08-19T11:15:07;14.38;;;7.53;;
789;SDS011;378;48.844;9.156;2022-08-19T11:17:37;9.30;;;6.88;;
789;SDS011;378;48.844;9.156;2022-08-19T11:20:08;12.57;;;7.18;;
789;SDS011;378;48.844;9.156;2022-08-19T11:22:37;16.15;;;7.18;;
789;SDS011;378;48.844;9.156;2022-08-19T11:25:05;12.13;;;7.68;;
789;SDS011;378;48.844;9.156;2022-08-19T11:27:37;10.40;;;7.45;;
789;SDS011;378;48.844;9.156;2022-08-19T11:30:07;10.55;;;6.47;;
789;SDS011;378;48.844;9.156;2022-08-19T11:32:35;11.13;;;6.82;;
789;SDS011;378;48.844;9.156;2022-08-19T11:35:04;11.02;;;6.50;;
789;SDS011;378;48.844;9.156;2022-08-19T11:37:31;10.75;;;6.90;;
789;SDS011;378;48.844;9.156;2022-08-19T11:40:02;12.88;;;7.65;;
789;SDS011;378;48.844;9.156;2022-08-19T11:42:30;11.48;;;7.13;;
789;SDS011;378;48.844;9.156;2022-08-19T11:45:14;13.70;;;7.03;;
789;SDS011;378;48.844;9.156;2022-08-19T11:47:43;12.55;;;7.47;;
789;SDS011;378;48.844;9.156;2022-08-19T11:50:11;10.82;;;6.90;;
789;SDS011;378;48.844;9.156;2022-08-19T11:52:38;11.43;;;7.10;;
789;SDS011;378;48.844;9.156;2022-08-19T11:55:05;9.52;;;6.93;;
789;SDS011;378;48.844;9.156;2022-08-19T11:57:33;12.75;;;7.07;;
789;SDS011;378;48.844;9.156;2022-08-19T12:00:00;10.65;;;7.07;;
789;SDS011;378;48.844;9.156;2022-08-19T12:02:28;12.18;;;7.05;;
789;SDS011;378;48.844;9.156;2022-08-19T12:04:56;12.85;;;7.28;;
789;SDS011;378;48.844;9.156;2022-08-19T12:07:23;11.82;;;7.15;;
789;SDS011;378;48.844;9.156;2022-08-19T12:09:50;12.52;;;7.40;;
789;SDS011;378;48.844;9.156;2022-08-19T12:12:17;11.23;;;7.25;;
789;SDS011;378;48.844;9.156;2022-08-19T12:14:45;13.60;;;7.60;;
789;SDS011;378;48.844;9.156;2022-08-19T12:17:12;11.57;;;7.88;;
789;SDS011;378;48.844;9.156;2022-08-19T12:19:39;11.15;;;7.07;;
789;SDS011;378;48.844;9.156;2022-08-19T12:22:07;11.93;;;7.65;;
789;SDS011;378;48.844;9.156;2022-08-19T12:24:34;9.35;;;7.07;;
789;SDS011;378;48.844;9.156;2022-08-19T12:27:01;12.80;;;7.20;;
789;SDS011;378;48.844;9.156;2022-08-19T12:29:28;12.82;;;7.13;;
789;SDS011;378;48.844;9.156;2022-08-19T12:31:56;8.90;;;6.47;;
789;SDS011;378;48.844;9.156;2022-08-19T12:34:26;11.05;;;7.30;;
789;SDS011;378;48.844;9.156;2022-08-19T12:36:55;13.48;;;7.05;;
789;SDS011;378;48.844;9.156;2022-08-19T12:39:23;8.38;;;6.53;;
789;SDS011;378;48.844;9.156;2022-08-19T12:41:50;10.20;;;6.57;;
789;SDS011;378;48.844;9.156;2022-08-19T12:44:17;10.00;;;6.38;;
789;SDS011;378;48.844;9.156;2022-08-19T12:46:44;7.28;;;5.88;;
789;SDS011;378;48.844;9.156;2022-08-19T12:49:14;11.23;;;6.18;;
789;SDS011;378;48.844;9.156;2022-08-19T12:51:41;9.55;;;6.18;;
789;SDS011;378;48.844;9.156;2022-08-19T12:54:08;8.18;;;5.95;;
789;SDS011;378;48.844;9.156;2022-08-19T12:56:37;10.30;;;5.53;;
789;SDS011;378;48.844;9.156;2022-08-19T12:59:04;9.60;;;5.60;;
789;SDS011;378;48.844;9.156;2022-08-19T13:01:33;10.73;;;6.22;;
789;SDS011;378;48.844;9.156;2022-08-19T13:04:00;10.68;;;5.82;;
789;SDS011;378;48.844;9.156;2022-08-19T13:06:27;14.23;;;6.10;;
789;SDS011;378;48.844;9.156;2022-08-19T13:08:54;13.50;;;7.95;;
789;SDS011;378;48.844;9.156;2022-08-19T13:11:21;10.18;;;7.38;;
789;SDS011;378;48.844;9.156;2022-08-19T13:13:51;9.23;;;7.20;;
789;SDS011;378;48.844;9.156;2022-08-19T13:16:20;11.27;;;6.93;;
789;SDS011;378;48.844;9.156;2022-08-19T13:18:47;11.27;;;6.93;;
789;SDS011;378;48.844;9.156;2022-08-19T13:21:17;9.98;;;7.80;;
789;SDS011;378;48.844;9.156;2022-08-19T13:23:45;17.40;;;7.85;;
789;SDS011;378;48.844;9.156;2022-08-19T13:26:13;16.90;;;7.70;;
789;SDS011;378;48.844;9.156;2022-08-19T13:28:40;12.95;;;6.82;;
789;SDS011;378;48.844;9.156;2022-08-19T13:31:28;10.48;;;6.45;;
789;SDS011;378;48.844;9.156;2022-08-19T13:34:14;16.33;;;9.35;;
789;SDS011;378;48.844;9.156;2022-08-19T13:36:42;15.68;;;10.73;;
789;SDS011;378;48.844;9.156;2022-08-19T13:39:09;22.88;;;12.43;;
789;SDS011;378;48.844;9.156;2022-08-19T13:41:36;23.70;;;13.98;;
789;SDS011;378;48.844;9.156;2022-08-19T13:44:03;28.10;;;17.75;;
789;SDS011;378;48.844;9.156;2022-08-19T13:46:32;34.00;;;19.98;;
789;SDS011;378;48.844;9.156;2022-08-19T13:48:59;36.08;;;21.73;;
789;SDS011;378;48.844;9.156;2022-08-19T13:51:26;41.47;;;24.13;;
789;SDS011;378;48.844;9.156;2022-08-19T13:53:53;39.47;;;24.13;;
789;SDS011;378;48.844;9.156;2022-08-19T13:56:21;43.75;;;25.33;;
789;SDS011;378;48.844;9.156;2022-08-19T13:58:48;45.95;;;28.00;;
789;SDS011;378;48.844;9.156;2022-08-19T14:01:19;52.65;;;28.40;;
789;SDS011;378;48.844;9.156;2022-08-19T14:03:47;56.10;;;30.13;;
789;SDS011;378;48.844;9.156;2022-08-19T14:06:19;52.95;;;31.02;;
789;SDS011;378;48.844;9.156;2022-08-19T14:08:47;54.38;;;29.83;;
789;SDS011;378;48.844;9.156;2022-08-19T14:11:18;53.47;;;29.58;;
789;SDS011;378;48.844;9.156;2022-08-19T14:13:45;47.90;;;28.77;;
789;SDS011;378;48.844;9.156;2022-08-19T14:16:13;48.25;;;27.10;;
789;SDS011;378;48.844;9.156;2022-08-19T14:18:40;52.15;;;30.35;;
789;SDS011;378;48.844;9.156;2022-08-19T14:21:13;50.63;;;29.25;;
789;SDS011;378;48.844;9.156;2022-08-19T14:23:43;45.70;;;27.52;;
789;SDS011;378;48.844;9.156;2022-08-19T14:26:11;45.10;;;27.52;;
789;SDS011;378;48.844;9.156;2022-08-19T14:28:41;49.45;;;27.88;;
789;SDS011;378;48.844;9.156;2022-08-19T14:31:08;46.40;;;27.83;;
789;SDS011;378;48.844;9.156;2022-08-19T14:33:36;40.55;;;25.67;;
789;SDS011;378;48.844;9.156;2022-08-19T14:38:43;40.13;;;23.90;;
789;SDS011;378;48.844;9.156;2022-08-19T14:41:11;40.92;;;23.80;;
789;SDS011;378;48.844;9.156;2022-08-19T14:43:41;39.03;;;23.98;;
789;SDS011;378;48.844;9.156;2022-08-19T14:46:11;37.83;;;23.20;;
789;SDS011;378;48.844;9.156;2022-08-19T14:48:38;35.33;;;22.67;;
789;SDS011;378;48.844;9.156;2022-08-19T14:51:05;39.97;;;23.30;;
789;SDS011;378;48.844;9.156;2022-08-19T14:53:33;35.08;;;22.88;;
789;SDS011;378;48.844;9.156;2022-08-19T14:56:01;34.50;;;21.63;;
789;SDS011;378;48.844;9.156;2022-08-19T14:58:34;31.27;;;21.63;;
789;SDS011;378;48.844;9.156;2022-08-19T15:01:01;35.67;;;22.25;;
789;SDS011;378;48.844;9.156;2022-08-19T15:03:28;30.73;;;20.75;;
789;SDS011;378;48.844;9.156;2022-08-19T15:05:56;29.45;;;19.63;;
789;SDS011;378;48.844;9.156;2022-08-19T15:08:24;31.17;;;18.98;;
789;SDS011;378;48.844;9.156;2022-08-19T15:10:51;34.22;;;17.98;;
789;SDS011;378;48.844;9.156;2022-08-19T15:13:20;29.38;;;18.05;;
789;SDS011;378;48.844;9.156;2022-08-19T15:15:47;28.13;;;18.23;;
789;SDS011;378;48.844;9.156;2022-08-19T15:18:14;30.05;;;18.23;;
789;SDS011;378;48.844;9.156;2022-08-19T15:20:41;27.92;;;19.50;;
789;SDS011;378;48.844;9.156;2022-08-19T15:23:09;27.42;;;18.75;;
789;SDS011;378;48.844;9.156;2022-08-19T15:25:36;31.30;;;20.73;;
789;SDS011;378;48.844;9.156;2022-08-19T15:28:03;32.38;;;20.55;;
789;SDS011;378;48.844;9.156;2022-08-19T15:30:32;27.67;;;18.70;;
789;SDS011;378;48.844;9.156;2022-08-19T15:32:59;31.45;;;20.02;;
789;SDS011;378;48.844;9.156;2022-08-19T15:35:27;26.70;;;18.65;;